Flight Track Log - Related Links

Times and Time Zones

All times are in EDT time to prevent confusion due to time zone crossing. See the TAM3469 flight status page for this flight to view local times or setup timezone preferences in your user account.

Time Position Orientation Groundspeed Altitude Reporting Facility
EDT Latitude Longitude Course Direction KTS MPH feet Rate Location/Type
Mon 07:34:00 PM -19.8739 -48.0618 161° South  Level Estimated
Mon 07:35:00 PM -19.9615 -48.0299 161° South  Level Estimated
Mon 07:36:00 PM -20.0490 -47.9979 161° South  Level Estimated
Mon 07:37:00 PM -20.1365 -47.9659 161° South  Level Estimated
Mon 07:38:00 PM -20.2240 -47.9338 161° South  Level Estimated
Mon 07:39:00 PM -20.3115 -47.9017 161° South  Level Estimated
Mon 07:40:00 PM -20.3990 -47.8696 161° South  Level Estimated
Mon 07:41:00 PM -20.4865 -47.8374 161° South  Level Estimated
Mon 07:42:00 PM -20.5739 -47.8052 161° South  Level Estimated
Mon 07:43:00 PM -20.6614 -47.7730 161° South  Level Estimated
Mon 07:44:00 PM -20.7489 -47.7407 161° South  Level Estimated
Mon 07:45:00 PM -20.8363 -47.7084 161° South  Level Estimated
Mon 07:46:00 PM -20.9238 -47.6760 161° South  Level Estimated
Mon 07:47:00 PM -21.0112 -47.6437 161° South  Level Estimated
Mon 07:48:00 PM -21.0987 -47.6113 161° South  Level Estimated
Mon 07:49:00 PM -21.1861 -47.5788 161° South  Level Estimated
Mon 07:50:00 PM -21.2736 -47.5463 161° South  Level Estimated
Mon 07:51:00 PM -21.3610 -47.5137 161° South  Level Estimated
Mon 07:52:00 PM -21.4484 -47.4812 161° South  Level Estimated
Mon 07:53:00 PM -21.5358 -47.4486 161° South  Level Estimated
Mon 07:54:00 PM -21.6232 -47.4159 161° South  Level Estimated
Mon 07:55:00 PM -21.7106 -47.3832 161° South  Level Estimated
Mon 07:56:00 PM -21.7980 -47.3505 161° South  Level Estimated
Mon 07:57:00 PM -21.8854 -47.3177 161° South  Level Estimated
Mon 07:58:00 PM -21.9728 -47.2849 161° South  Level Estimated
Mon 07:59:00 PM -22.0601 -47.2520 161° South  Level Estimated
Mon 08:00:00 PM -22.1475 -47.2191 161° South  Level Estimated
Mon 08:01:00 PM -22.2349 -47.1862 161° South  Level Estimated
Mon 08:02:00 PM -22.3222 -47.1532 161° South  Level Estimated
Mon 08:03:00 PM -22.4096 -47.1202 161° South  Level Estimated
Mon 08:04:00 PM -22.4969 -47.0871 161° South  Level Estimated
Mon 08:05:00 PM -22.5842 -47.0540 161° South  Level Estimated
Mon 08:06:00 PM -22.6716 -47.0209 161° South  Level Estimated
Mon 08:07:00 PM -22.7589 -46.9877 161° South  Level Estimated
Mon 08:08:00 PM -22.8462 -46.9545 161° South  Level Estimated
Mon 08:09:00 PM -22.9335 -46.9212 161° South  Level Estimated
Mon 08:10:00 PM -23.0208 -46.8879 161° South  Level Estimated
Mon 08:11:00 PM -23.1081 -46.8545 161° South  Level Estimated
Mon 08:12:00 PM -23.1954 -46.8211 161° South  Level Estimated
Mon 08:13:00 PM -23.2826 -46.7877 161° South  Level Estimated
Mon 08:14:00 PM -23.3699 -46.7542 161° South  Level Estimated
Mon 08:15:00 PM -23.4572 -46.7207 161° South  Level Estimated
Mon 08:16:00 PM -23.5444 -46.6871 161° South  Level Estimated
Mon 08:17:00 PM -23.6267 -46.6554 161° South  Level Estimated
Mon 08:18:00 PM -23.6267 -46.6554 114° Southeast  Level Estimated
Mon 08:19:00 PM -23.6267 -46.6554 114° Southeast  Level Estimated
Mon 08:20:00 PM -23.6267 -46.6554 114° Southeast  Level Estimated
Mon 08:21:00 PM -23.6267 -46.6554 114° Southeast  Level Estimated
Mon 08:22:00 PM -23.6267 -46.6554 114° Southeast  Level Estimated
Mon 08:23:00 PM -23.6267 -46.6554 114° Southeast  Level Estimated
Mon 08:24:00 PM -23.6267 -46.6554 114° Southeast  Level Estimated
Mon 08:25:00 PM -23.6267 -46.6554 114° Southeast  Level Estimated
Mon 08:26:00 PM -23.6267 -46.6554 114° Southeast  Level Estimated
Mon 08:27:00 PM -23.6267 -46.6554 114° Southeast  Level Estimated
Mon 08:28:00 PM -23.6267 -46.6554 114° Southeast  Level Estimated
Mon 08:29:00 PM -23.6267 -46.6554 114° Southeast  Level Estimated
Mon 08:30:00 PM -23.6267 -46.6554 114° Southeast  Level Estimated

Login

Don't have an account? Register now (free) for customized features, flight alerts, and more!